Date,TemperatureHighF,TemperatureAvgF,TemperatureLowF,DewpointHighF,DewpointAvgF,DewpointLowF,HumidityHigh,HumidityAvg,HumidityLow,PressureMaxIn,PressureMinIn,WindSpeedMaxMPH,WindSpeedAvgMPH,GustSpeedMaxMPH,PrecipitationSumIn
2013-3-1,73.4,58.3,44.6,24.3,9.8,-4.9,32,16,10,30.36,30.25,13,4,13,0.00
2013-3-2,81.0,63.4,48.7,28.5,21.2,14.0,33,22,10,30.33,30.19,11,4,11,0.00
2013-3-3,77.2,64.9,52.7,24.0,17.0,7.9,31,17,10,30.19,30.01,21,4,21,0.00
2013-3-4,69.8,61.0,50.2,31.5,24.2,8.5,46,26,12,30.15,29.96,19,4,19,0.00
2013-3-5,76.3,59.9,43.9,35.2,27.3,14.3,55,33,10,30.17,30.06,10,3,10,0.00
2013-3-6,78.8,63.6,50.2,34.4,26.3,14.3,52,28,10,30.11,29.99,11,3,11,0.00
2013-3-7,77.4,61.2,45.9,32.4,23.9,11.5,59,29,10,30.05,29.95,15,4,15,0.00
2013-3-8,60.1,51.5,40.1,49.9,39.1,25.4,95,67,29,30.01,29.84,22,5,22,0.39
2013-3-9,47.1,42.0,34.3,39.9,37.8,32.6,97,85,72,30.12,30.00,15,3,15,0.17
2013-3-10,62.2,50.2,39.2,40.5,35.8,26.6,88,61,27,30.20,30.11,17,4,17,0.00
2013-3-11,70.7,55.7,41.5,38.0,30.9,18.8,61,42,15,30.21,30.09,11,4,11,0.00
2013-3-12,80.4,62.3,47.7,41.0,30.4,-40.7,49,33,12,30.17,30.08,11,4,11,0.00
2013-3-13,85.3,68.2,48.4,35.7,26.1,15.2,56,24,10,30.22,30.12,11,4,11,0.00
2013-3-14,88.5,72.6,57.9,30.2,23.7,18.2,27,17,10,30.22,30.11,11,3,11,0.00
2013-3-15,90.1,71.6,53.4,36.7,24.1,15.8,53,19,10,30.14,30.03,15,4,15,0.00
2013-3-16,85.5,66.0,47.8,36.6,26.2,10.8,55,29,10,30.03,29.87,17,4,17,0.00
2013-3-17,79.7,62.7,47.1,35.5,24.5,12.2,57,29,10,30.02,29.92,19,4,19,0.00
2013-3-18,80.1,62.6,44.2,35.5,24.6,13.0,63,29,10,30.09,30.00,10,3,10,0.00
2013-3-19,77.5,63.5,49.1,35.5,26.8,13.8,55,28,10,30.13,30.03,14,4,14,0.00
2013-3-20,79.9,65.5,54.9,34.9,27.2,16.3,43,26,10,30.13,29.98,11,3,11,0.00
2013-3-21,77.0,63.3,49.6,38.3,31.9,17.6,60,34,11,29.98,29.85,10,2,10,0.00
2013-3-22,77.2,62.5,45.3,38.6,29.4,16.0,65,34,10,29.91,29.80,15,4,15,0.00
2013-3-23,71.8,57.8,43.3,40.7,23.4,1.3,76,34,10,30.06,29.91,19,4,19,0.00
2013-3-24,73.0,58.0,40.5,14.0,8.1,-1.2,33,15,10,30.08,29.96,14,4,14,0.00
2013-3-25,77.7,63.2,50.2,16.9,12.4,6.1,22,14,10,30.08,29.99,13,4,13,0.00
2013-3-26,83.8,67.0,53.1,21.5,15.9,6.7,28,15,10,30.06,29.94,16,4,16,0.00
2013-3-27,83.1,66.7,50.9,22.3,16.2,3.8,31,15,10,30.09,29.99,17,4,17,0.00
2013-3-28,81.1,65.8,49.5,26.4,17.5,6.8,31,17,10,30.15,30.06,13,4,13,0.00
2013-3-29,83.1,68.1,52.5,26.1,18.3,6.1,33,16,10,30.18,30.09,21,4,21,0.00
2013-3-30,79.5,67.8,59.0,27.2,17.5,6.7,29,15,10,30.16,30.05,12,3,12,0.00
2013-3-31,83.7,67.8,52.9,28.5,22.6,12.7,37,21,10,30.13,30.01,14,4,14,0.00